^^
Grace C. Lehan Memorial Weather Station Historical Data
Daily Summary for April 8, 2021 Units:  Metric    English   Both
Daily Weekly Monthly Yearly
  High: Low: Average:
Temperature: 27.6 °C 22.2 °C 24.1 °C
Dew Point: 20.8 °C 18.4 °C 19.6 °C
Humidity: 88% 61.6% 76%
Wind Speed: 4.8km/h 0km/h 0.2km/h
Wind Gust: 14.5km/h - -
Wind- - West
Pressure: 1018.5 hPa 1015.1 hPa -
Precipitation: 0 mm    
 
 
Tabular Data for April 8, 2021
Time Temperature Dew Point Pressure Wind Wind Speed Wind Gust Humidity Rainfall Rate (Hourly) solar
00:04 23.4 °C 18.6 °C 1015.8 hPa Calm     74% 0 mm 0 W/m2
00:09 23.4 °C 18.6 °C 1015.8 hPa Calm     74% 0 mm 0 W/m2
00:14 23.4 °C 18.5 °C 1015.8 hPa Calm     74% 0 mm 0 W/m2
00:19 23.3 °C 18.4 °C 1015.8 hPa Calm     74% 0 mm 0 W/m2
00:24 23.3 °C 18.4 °C 1015.8 hPa Calm     74% 0 mm 0 W/m2
00:29 23.2 °C 18.6 °C 1015.5 hPa Calm     74.9% 0 mm 0 W/m2
00:34 23.2 °C 18.5 °C 1015.5 hPa Calm     75% 0 mm 0 W/m2
00:39 23.1 °C 18.6 °C 1015.5 hPa Calm     75.5% 0 mm 0 W/m2
00:44 23.1 °C 18.6 °C 1015.5 hPa Calm     76% 0 mm 0 W/m2
00:49 23.1 °C 18.6 °C 1015.5 hPa Calm     76.1% 0 mm 0 W/m2
00:54 23 °C 18.8 °C 1015.5 hPa Calm     77% 0 mm 0 W/m2
00:59 23 °C 18.8 °C 1015.5 hPa Calm     77.1% 0 mm 0 W/m2
01:04 23 °C 18.9 °C 1015.5 hPa Calm     78% 0 mm 0 W/m2
01:09 23 °C 18.9 °C 1015.5 hPa Calm     78% 0 mm 0 W/m2
01:14 23 °C 18.9 °C 1015.5 hPa Calm     78% 0 mm 0 W/m2
01:19 23 °C 18.9 °C 1015.5 hPa Calm     78% 0 mm 0 W/m2
01:24 23 °C 19.1 °C 1015.5 hPa Calm     78.3% 0 mm 0 W/m2
01:29 23 °C 19.2 °C 1015.5 hPa Calm     79% 0 mm 0 W/m2
01:34 23 °C 19.2 °C 1015.5 hPa Calm     79% 0 mm 0 W/m2
01:39 22.9 °C 19.1 °C 1015.5 hPa Calm     79% 0 mm 0 W/m2
01:44 22.9 °C 19.3 °C 1015.5 hPa Calm     79.9% 0 mm 0 W/m2
01:49 22.9 °C 19.3 °C 1015.5 hPa Calm     80% 0 mm 0 W/m2
01:54 22.9 °C 19.3 °C 1015.5 hPa Calm     80% 0 mm 0 W/m2
01:59 22.8 °C 19.2 °C 1015.1 hPa Calm     80.1% 0 mm 0 W/m2
02:04 22.8 °C 19.3 °C 1015.1 hPa Calm     80.6% 0 mm 0 W/m2
02:09 22.8 °C 19.3 °C 1015.1 hPa Calm     81% 0 mm 0 W/m2
02:14 22.7 °C 19.4 °C 1015.1 hPa Calm     81.6% 0 mm 0 W/m2
02:19 22.7 °C 19.4 °C 1015.1 hPa Calm     81.8% 0 mm 0 W/m2
02:24 22.7 °C 19.4 °C 1015.1 hPa Calm     82% 0 mm 0 W/m2
02:29 22.7 °C 19.4 °C 1015.5 hPa Calm     82% 0 mm 0 W/m2
02:34 22.7 °C 19.4 °C 1015.5 hPa Calm     82% 0 mm 0 W/m2
02:39 22.6 °C 19.4 °C 1015.5 hPa Calm     82% 0 mm 0 W/m2
02:44 22.6 °C 19.3 °C 1015.5 hPa Calm     82% 0 mm 0 W/m2
02:49 22.6 °C 19.3 °C 1015.5 hPa Calm     82% 0 mm 0 W/m2
02:54 22.5 °C 19.4 °C 1015.5 hPa Calm     82.9% 0 mm 0 W/m2
02:59 22.5 °C 19.4 °C 1015.5 hPa Calm     83% 0 mm 0 W/m2
03:04 22.4 °C 19.4 °C 1015.5 hPa Calm     83% 0 mm 0 W/m2
03:09 22.4 °C 19.4 °C 1015.5 hPa Calm     83% 0 mm 0 W/m2
03:14 22.3 °C 19.5 °C 1015.5 hPa Calm     84% 0 mm 0 W/m2
03:19 22.3 °C 19.5 °C 1015.5 hPa Calm     84% 0 mm 0 W/m2
03:24 22.3 °C 19.5 °C 1015.5 hPa Calm     84% 0 mm 0 W/m2
03:29 22.3 °C 19.4 °C 1015.5 hPa Calm     84% 0 mm 0 W/m2
03:34 22.3 °C 19.4 °C 1015.5 hPa Calm     84% 0 mm 0 W/m2
03:39 22.3 °C 19.4 °C 1015.5 hPa Calm     84.1% 0 mm 0 W/m2
03:44 22.2 °C 19.6 °C 1015.5 hPa Calm     85% 0 mm 0 W/m2
03:49 22.2 °C 19.6 °C 1015.8 hPa Calm     85% 0 mm 0 W/m2
03:54 22.2 °C 19.6 °C 1015.8 hPa Calm     85% 0 mm 0 W/m2
03:59 22.3 °C 19.6 °C 1015.8 hPa Calm     85% 0 mm 0 W/m2
04:09 22.3 °C 19.6 °C 1015.8 hPa Calm     85% 0 mm 0 W/m2
04:14 22.3 °C 19.7 °C 1015.8 hPa Calm     85.1% 0 mm 0 W/m2
04:19 22.3 °C 19.8 °C 1015.8 hPa Calm     86% 0 mm 0 W/m2
04:24 22.3 °C 19.8 °C 1015.8 hPa Calm     86% 0 mm 0 W/m2
04:29 22.3 °C 19.8 °C 1016.1 hPa Calm     86% 0 mm 0 W/m2
04:34 22.3 °C 19.8 °C 1016.1 hPa Calm     86% 0 mm 0 W/m2
04:39 22.3 °C 19.8 °C 1016.1 hPa Calm     86% 0 mm 0 W/m2
04:44 22.3 °C 19.8 °C 1016.1 hPa Calm     86% 0 mm 0 W/m2
04:49 22.3 °C 19.8 °C 1016.1 hPa Calm     86% 0 mm 0 W/m2
04:54 22.2 °C 19.8 °C 1016.1 hPa Calm     86% 0 mm 0 W/m2
04:59 22.2 °C 19.9 °C 1016.1 hPa Calm     86.9% 0 mm 0 W/m2
05:04 22.2 °C 19.9 °C 1016.1 hPa Calm     87% 0 mm 0 W/m2
05:09 22.2 °C 19.9 °C 1016.1 hPa Calm     87% 0 mm 0 W/m2
05:14 22.2 °C 19.9 °C 1016.1 hPa Calm     87% 0 mm 0 W/m2
05:19 22.2 °C 19.9 °C 1016.1 hPa Calm     87% 0 mm 0 W/m2
05:24 22.2 °C 20.1 °C 1016.1 hPa Calm   1.6 km/h 87.8% 0 mm 0 W/m2
05:29 22.2 °C 20.2 °C 1016.1 hPa Calm   1.6 km/h 88% 0 mm 0 W/m2
05:34 22.3 °C 20.1 °C 1015.8 hPa WSW 0.2 km/h 4.8 km/h 87.4% 0 mm 0 W/m2
05:39 22.3 °C 20.1 °C 1016.1 hPa Calm   4.8 km/h 87% 0 mm 0 W/m2
05:44 22.3 °C 20.1 °C 1016.1 hPa Calm   4.8 km/h 87% 0 mm 0 W/m2
05:49 22.4 °C 20.1 °C 1016.1 hPa Calm   4.8 km/h 87% 0 mm 0 W/m2
05:54 22.4 °C 20.1 °C 1016.1 hPa Calm   4.8 km/h 87% 0 mm 0 W/m2
05:59 22.4 °C 20.2 °C 1016.1 hPa Calm   4.8 km/h 87% 0 mm 0 W/m2
06:04 22.4 °C 20.2 °C 1016.1 hPa Calm   4.8 km/h 87% 0 mm 0 W/m2
06:09 22.4 °C 20.2 °C 1016.1 hPa Calm     87% 0 mm 0 W/m2
06:14 22.4 °C 20.2 °C 1016.1 hPa Calm     87% 0 mm 0 W/m2
06:19 22.5 °C 20.2 °C 1016.1 hPa Calm     87% 0 mm 5 W/m2
06:24 22.5 °C 20.2 °C 1016.5 hPa Calm     87% 0 mm 9 W/m2
06:29 22.4 °C 20.1 °C 1016.5 hPa Calm     86.6% 0 mm 11 W/m2
06:34 22.4 °C 19.9 °C 1016.5 hPa Calm     86% 0 mm 11 W/m2
06:39 22.4 °C 19.9 °C 1016.5 hPa Calm     86% 0 mm 12 W/m2
06:44 22.4 °C 19.9 °C 1016.5 hPa Calm     86% 0 mm 16 W/m2
06:49 22.4 °C 19.9 °C 1016.5 hPa Calm     86% 0 mm 18 W/m2
06:54 22.3 °C 19.9 °C 1016.5 hPa Calm     86% 0 mm 19 W/m2
06:59 22.3 °C 19.9 °C 1016.5 hPa WSW 0.3 km/h 4.8 km/h 86% 0 mm 19 W/m2
07:04 22.3 °C 19.8 °C 1016.5 hPa Calm   4.8 km/h 85.7% 0 mm 21 W/m2
07:09 22.3 °C 19.6 °C 1016.5 hPa Calm     85% 0 mm 23 W/m2
07:14 22.3 °C 19.4 °C 1016.5 hPa Calm     84.1% 0 mm 33 W/m2
07:19 22.3 °C 19.4 °C 1016.5 hPa Calm   1.6 km/h 83.8% 0 mm 44 W/m2
07:24 22.3 °C 19.3 °C 1016.5 hPa Calm   1.6 km/h 83% 0 mm 49 W/m2
07:29 22.3 °C 19.3 °C 1016.5 hPa Calm   1.6 km/h 83% 0 mm 51 W/m2
07:34 22.4 °C 19.3 °C 1016.5 hPa Calm   1.6 km/h 83% 0 mm 58 W/m2
07:39 22.4 °C 19.4 °C 1016.8 hPa Calm     83% 0 mm 76 W/m2
07:40 22.4 °C 19.4 °C 1016.8 hPa Calm     83% 0 mm 76 W/m2
08:04 22.8 °C 19.2 °C 1016.8 hPa Calm     80% 0 mm 84 W/m2
08:09 22.9 °C 19.2 °C 1016.8 hPa Calm     79.8% 0 mm 84 W/m2
08:14 22.9 °C 19.2 °C 1016.8 hPa Calm     79.5% 0 mm 83 W/m2
08:19 22.9 °C 19.1 °C 1016.8 hPa Calm     79% 0 mm 84 W/m2
08:24 22.9 °C 19.2 °C 1016.8 hPa Calm     79.4% 0 mm 84 W/m2
08:29 23 °C 19.2 °C 1016.8 hPa Calm     79.3% 0 mm 81 W/m2
08:34 23 °C 18.9 °C 1016.8 hPa Calm     77.8% 0 mm 72 W/m2
08:39 23 °C 18.9 °C 1017.2 hPa Calm     78% 0 mm 83 W/m2
08:44 23.1 °C 19.2 °C 1017.2 hPa Calm     78.7% 0 mm 90 W/m2
08:49 23.1 °C 19.4 °C 1017.2 hPa Calm     79.6% 0 mm 95 W/m2
08:54 23.2 °C 19.4 °C 1017.2 hPa Calm     79.3% 0 mm 100 W/m2
08:59 23.2 °C 19.4 °C 1017.2 hPa Calm   1.6 km/h 79.2% 0 mm 104 W/m2
09:04 23.2 °C 19.3 °C 1017.2 hPa Calm   1.6 km/h 78.7% 0 mm 111 W/m2
09:09 23.3 °C 19.1 °C 1017.2 hPa Calm   3.2 km/h 77.4% 0 mm 134 W/m2
09:14 23.3 °C 19 °C 1017.2 hPa WSW 1.3 km/h 8 km/h 76.8% 0 mm 134 W/m2
09:19 23.3 °C 19.1 °C 1017.5 hPa Calm   8 km/h 77.3% 0 mm 127 W/m2
09:24 23.4 °C 19.3 °C 1017.2 hPa WSW 0.5 km/h 8 km/h 77.5% 0 mm 151 W/m2
09:29 23.5 °C 19.2 °C 1017.5 hPa Calm   8 km/h 77.1% 0 mm 197 W/m2
09:34 23.6 °C 19.4 °C 1017.5 hPa WSW 1.1 km/h 8 km/h 77.5% 0 mm 236 W/m2
09:39 23.7 °C 19.1 °C 1017.5 hPa West 2.7 km/h 11.3 km/h 75.5% 0 mm 223 W/m2
09:44 23.7 °C 19 °C 1017.5 hPa West 1 km/h 11.3 km/h 74.7% 0 mm 369 W/m2
09:49 23.8 °C 19.2 °C 1017.5 hPa West 1.4 km/h 11.3 km/h 75.4% 0 mm 557 W/m2
09:54 24.2 °C 19.7 °C 1017.5 hPa West 1.9 km/h 11.3 km/h 75.6% 0 mm 810 W/m2
09:59 24.8 °C 19.6 °C 1017.5 hPa WNW 4.8 km/h 11.3 km/h 72.6% 0 mm 350 W/m2
10:04 25.1 °C 19.2 °C 1017.5 hPa WNW 2.9 km/h 14.5 km/h 70.2% 0 mm 297 W/m2
10:09 25.1 °C 19.1 °C 1017.5 hPa WNW 0.3 km/h 14.5 km/h 69.6% 0 mm 251 W/m2
10:14 25.1 °C 19.3 °C 1017.5 hPa WNW 0.3 km/h 14.5 km/h 70.2% 0 mm 213 W/m2
10:19 25.1 °C 19.5 °C 1017.5 hPa WNW 1.1 km/h 14.5 km/h 70.9% 0 mm 383 W/m2
10:24 25.3 °C 19.8 °C 1017.5 hPa WNW 0.5 km/h 14.5 km/h 71.9% 0 mm 476 W/m2
10:29 25.5 °C 19.7 °C 1017.5 hPa WNW 0.5 km/h 14.5 km/h 70.5% 0 mm 476 W/m2
10:34 25.7 °C 19.4 °C 1017.5 hPa Calm   14.5 km/h 68.6% 0 mm 276 W/m2
10:39 25.8 °C 19.4 °C 1017.2 hPa Calm     67.9% 0 mm 236 W/m2
11:00 25.7 °C 19.8 °C 1017.5 hPa Calm     70% 0 mm 170 W/m2
11:30 25.2 °C 19.6 °C 1017.8 hPa Calm     71% 0 mm 94 W/m2
12:04 25.2 °C 20 °C 1017.8 hPa Calm     73% 0 mm 76 W/m2
12:09 25.1 °C 19.7 °C 1017.8 hPa Calm     71.8% 0 mm 83 W/m2
12:14 25.1 °C 19.4 °C 1018.2 hPa Calm     71% 0 mm 93 W/m2
12:19 25.1 °C 19.6 °C 1018.2 hPa Calm     71.8% 0 mm 95 W/m2
12:24 25 °C 19.5 °C 1018.2 hPa Calm     71.4% 0 mm 102 W/m2
12:29 25.1 °C 19.8 °C 1018.2 hPa Calm     72.8% 0 mm 111 W/m2
12:34 25 °C 19.7 °C 1018.2 hPa Calm     72.2% 0 mm 113 W/m2
12:39 25.1 °C 19.8 °C 1018.2 hPa Calm     72.8% 0 mm 123 W/m2
12:44 25 °C 19.4 °C 1018.2 hPa Calm     71.3% 0 mm 190 W/m2
12:49 25 °C 19.5 °C 1018.2 hPa Calm     71.5% 0 mm 221 W/m2
12:54 25.1 °C 20.3 °C 1018.2 hPa Calm     74.5% 0 mm 239 W/m2
12:59 25.2 °C 20.1 °C 1018.2 hPa Calm     73.3% 0 mm 244 W/m2
13:04 25.3 °C 19.8 °C 1018.2 hPa Calm     71.4% 0 mm 253 W/m2
13:09 25.3 °C 19.6 °C 1018.2 hPa Calm     70.4% 0 mm 290 W/m2
13:14 25.4 °C 19.9 °C 1018.2 hPa Calm     71.2% 0 mm 390 W/m2
13:19 25.6 °C 20.1 °C 1018.2 hPa Calm     71.4% 0 mm 475 W/m2
13:24 25.8 °C 20.5 °C 1017.8 hPa Calm     72.6% 0 mm 501 W/m2
13:29 25.9 °C 20.8 °C 1017.8 hPa Calm     73.7% 0 mm 387 W/m2
13:34 25.9 °C 20.6 °C 1017.8 hPa Calm     72.4% 0 mm 323 W/m2
13:39 26 °C 20.4 °C 1017.8 hPa Calm   1.6 km/h 71.3% 0 mm 327 W/m2
13:44 26.1 °C 20.4 °C 1017.8 hPa Calm   1.6 km/h 71.1% 0 mm 299 W/m2
13:49 26.1 °C 20.4 °C 1017.8 hPa Calm   1.6 km/h 71.2% 0 mm 274 W/m2
13:54 26.1 °C 20.6 °C 1017.8 hPa Calm   1.6 km/h 71.5% 0 mm 234 W/m2
13:59 26.2 °C 20.6 °C 1017.8 hPa Calm   1.6 km/h 71.3% 0 mm 246 W/m2
14:04 26.1 °C 20.2 °C 1017.8 hPa Calm   1.6 km/h 69.8% 0 mm 264 W/m2
14:09 26.1 °C 20 °C 1017.8 hPa Calm     69% 0 mm 271 W/m2
14:14 26.2 °C 19.9 °C 1017.8 hPa Calm     68.4% 0 mm 257 W/m2
14:19 26.3 °C 19.5 °C 1017.8 hPa Calm     66.3% 0 mm 274 W/m2
14:24 26.3 °C 19.2 °C 1017.8 hPa Calm     65% 0 mm 292 W/m2
14:29 26.4 °C 19.4 °C 1017.8 hPa Calm     65.5% 0 mm 343 W/m2
14:34 26.5 °C 19.3 °C 1017.5 hPa Calm     64.7% 0 mm 350 W/m2
14:39 26.7 °C 19.7 °C 1017.5 hPa Calm     65.4% 0 mm 411 W/m2
14:44 26.8 °C 19.6 °C 1017.5 hPa Calm   1.6 km/h 64.3% 0 mm 763 W/m2
14:49 27.1 °C 19.3 °C 1017.8 hPa WNW 0.3 km/h 3.2 km/h 62.6% 0 mm 763 W/m2
14:54 27.2 °C 19.6 °C 1017.8 hPa Calm   3.2 km/h 63% 0 mm 422 W/m2
14:59 27.3 °C 19.7 °C 1017.8 hPa Calm   3.2 km/h 63.3% 0 mm 396 W/m2
15:04 27.3 °C 19.8 °C 1017.8 hPa Calm   3.2 km/h 63.6% 0 mm 345 W/m2
15:09 27.3 °C 20.1 °C 1017.8 hPa WNW 0.2 km/h 4.8 km/h 64.6% 0 mm 552 W/m2
15:14 27.4 °C 20.1 °C 1017.8 hPa Calm   4.8 km/h 64.3% 0 mm 554 W/m2
15:19 27.5 °C 19.8 °C 1017.8 hPa Calm   4.8 km/h 62.8% 0 mm 455 W/m2
15:24 27.6 °C 19.6 °C 1017.8 hPa Calm   4.8 km/h 61.6% 0 mm 229 W/m2
15:29 27.5 °C 20 °C 1017.8 hPa Calm   4.8 km/h 63.7% 0 mm 171 W/m2
15:34 27.4 °C 20.1 °C 1017.8 hPa Calm   4.8 km/h 64.3% 0 mm 139 W/m2
15:39 27.3 °C 19.8 °C 1017.8 hPa Calm     63.8% 0 mm 134 W/m2
15:44 27.1 °C 19.5 °C 1017.5 hPa Calm     63.3% 0 mm 148 W/m2
15:49 26.8 °C 19.4 °C 1017.5 hPa Calm     63.9% 0 mm 179 W/m2
15:54 26.7 °C 19.4 °C 1017.5 hPa Calm     64.7% 0 mm 199 W/m2
15:59 26.6 °C 19.6 °C 1017.5 hPa Calm     65.5% 0 mm 197 W/m2
16:04 26.3 °C 19.5 °C 1017.5 hPa Calm     66% 0 mm 114 W/m2
16:09 26.3 °C 19.6 °C 1017.5 hPa Calm     66.7% 0 mm 114 W/m2
16:14 26.1 °C 19.4 °C 1017.5 hPa Calm     66.6% 0 mm 86 W/m2
16:19 26.1 °C 19.1 °C 1017.5 hPa Calm     65.4% 0 mm 102 W/m2
16:24 25.9 °C 19.1 °C 1017.5 hPa Calm     65.9% 0 mm 113 W/m2
16:29 25.9 °C 19.3 °C 1017.5 hPa Calm     66.9% 0 mm 127 W/m2
16:34 25.9 °C 19.3 °C 1017.5 hPa Calm     67% 0 mm 130 W/m2
16:39 26 °C 19.8 °C 1017.8 hPa Calm     68.5% 0 mm 120 W/m2
16:44 26 °C 19.6 °C 1017.8 hPa Calm     67.5% 0 mm 97 W/m2
16:49 26 °C 19.7 °C 1017.8 hPa Calm     68.1% 0 mm 84 W/m2
16:54 25.9 °C 19.3 °C 1017.5 hPa Calm     67% 0 mm 102 W/m2
16:59 25.9 °C 19.2 °C 1017.5 hPa Calm     66.6% 0 mm 127 W/m2
17:04 25.9 °C 19.1 °C 1017.5 hPa Calm     66% 0 mm 148 W/m2
17:09 25.9 °C 18.6 °C 1017.8 hPa Calm     64.1% 0 mm 176 W/m2
17:14 25.9 °C 18.5 °C 1017.8 hPa Calm     63.7% 0 mm 176 W/m2
17:19 25.9 °C 18.4 °C 1017.8 hPa Calm     63% 0 mm 156 W/m2
17:24 26 °C 19.1 °C 1017.8 hPa Calm     65.7% 0 mm 146 W/m2
17:29 26.1 °C 19.1 °C 1017.8 hPa Calm     65.5% 0 mm 130 W/m2
17:32 26.1 °C 19.3 °C 1017.8 hPa Calm     66.3% 0 mm 130 W/m2
18:00 26.2 °C 18.9 °C 1017.5 hPa Calm     64% 0 mm 109 W/m2
18:30 26.3 °C 19.9 °C 1017.8 hPa Calm     68% 0 mm 84 W/m2
19:00 26.1 °C 19.4 °C 1017.8 hPa Calm   3.2 km/h 67% 0 mm 47 W/m2
19:30 25.7 °C 19.3 °C 1017.8 hPa Calm     68% 0 mm 29 W/m2
20:04 25.3 °C 19.4 °C 1017.8 hPa Calm     69.9% 0 mm 0 W/m2
20:09 25.2 °C 19.1 °C 1017.8 hPa Calm     69% 0 mm 0 W/m2
20:14 25.2 °C 19.3 °C 1017.8 hPa Calm     70% 0 mm 0 W/m2
20:19 25.1 °C 19.4 °C 1017.8 hPa Calm     70.5% 0 mm 0 W/m2
20:24 25.1 °C 19.4 °C 1017.8 hPa Calm     71% 0 mm 0 W/m2
20:29 25.1 °C 19.3 °C 1017.8 hPa Calm     70.4% 0 mm 0 W/m2
20:34 24.9 °C 19.1 °C 1018.2 hPa Calm     70% 0 mm 0 W/m2
20:39 24.9 °C 19.3 °C 1018.2 hPa Calm     70.8% 0 mm 0 W/m2
20:43 24.9 °C 19.3 °C 1018.2 hPa Calm     71.1% 0 mm 0 W/m2
20:49 24.8 °C 19.5 °C 1018.2 hPa Calm     72.3% 0 mm 0 W/m2
20:54 24.8 °C 19.6 °C 1018.2 hPa Calm     73% 0 mm 0 W/m2
20:59 24.7 °C 19.7 °C 1018.2 hPa Calm     73.4% 0 mm 0 W/m2
21:04 24.7 °C 19.7 °C 1018.2 hPa Calm     74% 0 mm 0 W/m2
21:09 24.6 °C 19.7 °C 1018.2 hPa Calm     74.2% 0 mm 0 W/m2
21:14 24.6 °C 19.8 °C 1018.2 hPa Calm     75% 0 mm 0 W/m2
21:19 24.6 °C 19.9 °C 1018.5 hPa Calm     75.5% 0 mm 0 W/m2
21:24 24.5 °C 20 °C 1018.5 hPa Calm     76% 0 mm 0 W/m2
21:29 24.4 °C 19.9 °C 1018.5 hPa Calm     76% 0 mm 0 W/m2
21:34 24.4 °C 19.9 °C 1018.5 hPa Calm     76% 0 mm 0 W/m2
21:39 24.3 °C 19.8 °C 1018.5 hPa Calm     76% 0 mm 0 W/m2
21:44 24.3 °C 19.8 °C 1018.5 hPa Calm     76% 0 mm 0 W/m2
21:49 24.2 °C 19.9 °C 1018.5 hPa Calm     76.7% 0 mm 0 W/m2
21:54 24.2 °C 19.9 °C 1018.5 hPa Calm     77% 0 mm 0 W/m2
21:59 24.2 °C 19.9 °C 1018.5 hPa Calm     77% 0 mm 0 W/m2
22:04 24.1 °C 19.8 °C 1018.2 hPa Calm     77% 0 mm 0 W/m2
22:09 24.1 °C 19.8 °C 1018.2 hPa Calm     77% 0 mm 0 W/m2
22:14 24.1 °C 19.8 °C 1018.2 hPa Calm     77% 0 mm 0 W/m2
22:19 24 °C 19.9 °C 1018.2 hPa Calm     77.7% 0 mm 0 W/m2
22:24 23.9 °C 19.9 °C 1018.2 hPa Calm     78.2% 0 mm 0 W/m2
22:29 23.9 °C 20.1 °C 1018.2 hPa Calm     79% 0 mm 0 W/m2
22:34 23.9 °C 20 °C 1018.2 hPa Calm     79% 0 mm 0 W/m2
22:39 23.8 °C 20 °C 1018.2 hPa Calm     79.3% 0 mm 0 W/m2
22:44 23.7 °C 20.1 °C 1018.2 hPa Calm     80% 0 mm 0 W/m2
22:49 23.7 °C 20 °C 1018.2 hPa Calm     80% 0 mm 0 W/m2
22:54 23.6 °C 20 °C 1018.2 hPa Calm     80.4% 0 mm 0 W/m2
22:59 23.5 °C 20.1 °C 1018.2 hPa Calm     81% 0 mm 0 W/m2
23:04 23.4 °C 20 °C 1018.2 hPa Calm     81% 0 mm 0 W/m2
23:09 23.4 °C 20 °C 1018.2 hPa Calm     81.4% 0 mm 0 W/m2
23:14 23.3 °C 20.1 °C 1018.2 hPa Calm     82% 0 mm 0 W/m2
23:19 23.3 °C 19.9 °C 1018.2 hPa Calm     81.7% 0 mm 0 W/m2
23:24 23.2 °C 20 °C 1018.2 hPa Calm     82% 0 mm 0 W/m2
23:29 23.2 °C 19.9 °C 1018.2 hPa Calm     82% 0 mm 0 W/m2
23:34 23.2 °C 20.1 °C 1018.2 hPa Calm     82.8% 0 mm 0 W/m2
23:39 23.1 °C 20.1 °C 1018.2 hPa Calm     83% 0 mm 0 W/m2
23:44 23.1 °C 20.1 °C 1018.2 hPa Calm     83% 0 mm 0 W/m2
23:49 23.1 °C 20 °C 1018.2 hPa Calm     83% 0 mm 0 W/m2
23:54 23.1 °C 20.2 °C 1018.2 hPa Calm     83.7% 0 mm 0 W/m2
23:59 23.1 °C 20.2 °C 1018.2 hPa Calm     84% 0 mm 0 W/m2
Hartford County Weather
Compliments of Weather Underground - 2 mb